Time;durP1;ratioP1;P1;durP2;ratioP2;P2;SDS_P1;SDS_P2;PMS_P1;PMS_P2;Temp;Humidity;BMP_temperature;BMP_pressure;BME280_temperature;BME280_humidity;BME280_pressure;Samples;Min_cycle;Max_cycle;Signal;HPM_P1;HPM_P2
2023/03/29 00:02:18;;;;;;;4.60;2.60;;;;;;;-2.67;60.15;100944.17;117299;1253;1016362;-73
2023/03/29 00:07:13;;;;;;;4.00;2.70;;;;;;;-2.70;60.28;100941.09;107518;1253;1064866;-73
2023/03/29 00:12:06;;;;;;;4.40;3.00;;;;;;;-2.71;60.39;100943.40;107323;1253;1070169;-73
2023/03/29 00:16:59;;;;;;;7.10;4.10;;;;;;;-2.75;60.65;100945.52;107286;1253;1016458;-73
2023/03/29 00:21:51;;;;;;;6.60;3.10;;;;;;;-2.77;60.61;100952.52;107262;1253;1016100;-73
2023/03/29 00:26:45;;;;;;;8.60;4.00;;;;;;;-2.78;60.87;100953.06;107314;1253;1016199;-73
2023/03/29 00:31:38;;;;;;;7.60;3.30;;;;;;;-2.77;60.97;100943.28;107310;1253;1016561;-73
2023/03/29 00:36:31;;;;;;;6.00;3.40;;;;;;;-2.75;60.97;100940.73;107253;1253;1018189;-73
2023/03/29 00:41:23;;;;;;;6.20;3.40;;;;;;;-2.74;61.06;100938.96;107233;1254;1016397;-73
2023/03/29 00:46:16;;;;;;;7.00;4.30;;;;;;;-2.76;60.99;100945.59;107285;1253;1018209;-73
2023/03/29 00:51:13;;;;;;;6.20;3.50;;;;;;;-2.80;61.13;100940.89;107244;1253;1016335;-73
2023/03/29 00:56:10;;;;;;;5.80;3.40;;;;;;;-2.80;61.07;100952.08;107251;1253;1064786;-73
2023/03/29 01:01:09;;;;;;;6.20;3.20;;;;;;;-2.80;61.18;100949.05;107242;1254;1071340;-74
2023/03/29 01:06:07;;;;;;;9.40;4.50;;;;;;;-2.81;61.09;100951.30;107230;1254;1050622;-73
2023/03/29 01:11:17;;;;;;;5.60;3.50;;;;;;;-2.85;61.29;100953.90;107261;1254;1057733;-73
2023/03/29 01:16:12;;;;;;;8.80;4.60;;;;;;;-2.91;61.28;100955.69;107132;1253;1071946;-73
2023/03/29 01:21:09;;;;;;;5.40;3.50;;;;;;;-2.95;61.32;100954.52;107143;1254;1064861;-73
2023/03/29 01:26:11;;;;;;;7.00;3.50;;;;;;;-2.96;61.27;100951.70;107193;1254;1070386;-73
2023/03/29 01:31:21;;;;;;;7.30;3.10;;;;;;;-2.99;61.27;100952.14;107213;1257;1051358;-73
2023/03/29 01:36:27;;;;;;;6.80;3.90;;;;;;;-3.02;61.51;100952.13;107182;1254;1057993;-73
2023/03/29 01:41:20;;;;;;;5.00;3.50;;;;;;;-3.02;61.54;100954.00;107208;1254;1074909;-73
2023/03/29 01:46:30;;;;;;;7.50;3.70;;;;;;;-3.05;61.61;100954.95;107219;1253;1017009;-73
2023/03/29 01:51:38;;;;;;;9.20;5.30;;;;;;;-3.10;61.55;100955.77;107214;1254;1070272;-73
2023/03/29 01:56:36;;;;;;;4.50;3.00;;;;;;;-3.16;61.76;100961.27;107214;1254;1052157;-73
2023/03/29 02:01:36;;;;;;;5.80;3.00;;;;;;;-3.23;61.59;100967.31;107244;1253;1060994;-73
2023/03/29 02:06:32;;;;;;;5.70;3.50;;;;;;;-3.29;61.96;100966.05;107202;1254;1072389;-73
2023/03/29 02:11:28;;;;;;;6.70;4.00;;;;;;;-3.32;62.07;100967.31;107203;1254;1065846;-73
2023/03/29 02:16:21;;;;;;;7.00;4.00;;;;;;;-3.35;62.19;100967.61;107195;1253;1071200;-73
2023/03/29 02:21:41;;;;;;;7.60;4.00;;;;;;;-3.38;62.25;100968.77;107206;1253;1016158;-73
2023/03/29 02:26:35;;;;;;;6.80;3.70;;;;;;;-3.43;62.41;100971.91;107203;1253;1058687;-73
2023/03/29 02:31:36;;;;;;;7.10;3.80;;;;;;;-3.50;62.51;100969.05;107151;1253;1015795;-73
2023/03/29 02:36:50;;;;;;;7.90;3.70;;;;;;;-3.54;62.48;100970.73;107004;1258;1230597;-73
2023/03/29 02:41:48;;;;;;;7.80;3.90;;;;;;;-3.57;62.47;100966.78;107270;1254;1071078;-73
2023/03/29 02:46:42;;;;;;;7.00;3.80;;;;;;;-3.60;62.90;100970.25;107222;1253;1051055;-74
2023/03/29 02:51:38;;;;;;;7.00;3.70;;;;;;;-3.63;62.92;100975.45;107287;1254;1058030;-73
2023/03/29 02:56:42;;;;;;;5.60;3.40;;;;;;;-3.67;63.11;100974.63;107265;1254;1073022;-73
2023/03/29 03:01:35;;;;;;;7.20;3.80;;;;;;;-3.71;63.14;100973.46;107197;1253;1065875;-73
2023/03/29 03:06:28;;;;;;;7.90;4.30;;;;;;;-3.74;63.20;100980.36;107249;1255;1016318;-73
2023/03/29 03:11:22;;;;;;;6.40;3.50;;;;;;;-3.79;63.46;100977.55;107234;1254;1016435;-73
2023/03/29 03:16:15;;;;;;;7.70;4.20;;;;;;;-3.85;63.50;100979.19;107167;1259;1016673;-73
2023/03/29 03:21:08;;;;;;;6.90;3.70;;;;;;;-3.88;64.05;100979.27;107273;1254;1016411;-73
2023/03/29 03:26:02;;;;;;;7.20;3.90;;;;;;;-3.90;63.84;100980.53;107250;1256;1016315;-74
2023/03/29 03:30:55;;;;;;;8.80;3.50;;;;;;;-3.90;64.24;100984.89;107110;1255;1016508;-73
2023/03/29 03:36:09;;;;;;;7.50;4.50;;;;;;;-3.90;64.36;100986.10;107289;1254;1050663;-73
2023/03/29 03:41:04;;;;;;;12.00;4.20;;;;;;;-3.91;64.68;100983.30;107237;1254;1058203;-73
2023/03/29 03:45:58;;;;;;;6.60;4.10;;;;;;;-3.95;64.44;100984.85;107250;1253;1072139;-73
2023/03/29 03:50:57;;;;;;;7.90;3.90;;;;;;;-3.99;65.13;100985.52;107204;1254;1016336;-73
2023/03/29 03:55:55;;;;;;;7.30;5.50;;;;;;;-4.02;65.09;100991.21;107178;1253;1071115;-73
2023/03/29 04:00:53;;;;;;;12.60;4.70;;;;;;;-4.06;65.41;100992.94;107158;1256;1050668;-73
2023/03/29 04:06:03;;;;;;;6.60;3.70;;;;;;;-4.11;65.23;100999.27;107286;1254;1058803;-73
2023/03/29 04:11:09;;;;;;;7.00;3.70;;;;;;;-4.19;65.45;100999.36;107202;1254;1071824;-73
2023/03/29 04:16:06;;;;;;;4.70;3.70;;;;;;;-4.27;65.63;101003.45;107280;1253;1063720;-73
2023/03/29 04:20:59;;;;;;;9.90;3.90;;;;;;;-4.34;65.89;101014.41;107239;1255;1018432;-73
2023/03/29 04:25:57;;;;;;;7.10;3.90;;;;;;;-4.37;66.08;101018.53;107283;1254;1051015;-73
2023/03/29 04:31:13;;;;;;;9.20;4.40;;;;;;;-4.43;66.03;101024.64;107273;1256;1058631;-73
2023/03/29 04:36:15;;;;;;;19.30;5.20;;;;;;;-4.47;66.17;101026.52;107243;1256;1071713;-72
2023/03/29 04:41:09;;;;;;;11.70;5.10;;;;;;;-4.49;66.35;101026.34;107224;1257;1016333;-73
2023/03/29 04:46:39;;;;;;;6.00;4.00;;;;;;;-4.53;66.29;101027.05;107125;1254;1071173;-73
2023/03/29 04:51:59;;;;;;;10.80;4.90;;;;;;;-4.57;66.50;101022.80;107211;1256;1051107;-73
2023/03/29 04:56:55;;;;;;;9.90;5.50;;;;;;;-4.55;66.47;101024.64;107269;1253;1058250;-72
2023/03/29 05:02:09;;;;;;;10.50;4.80;;;;;;;-4.51;66.80;101024.16;107309;1252;1070799;-72
2023/03/29 05:07:03;;;;;;;10.40;5.40;;;;;;;-4.47;66.92;101026.02;107275;1254;1016150;-73
2023/03/29 05:11:56;;;;;;;8.50;4.90;;;;;;;-4.43;67.12;101027.42;107321;1254;1016474;-73
2023/03/29 05:16:49;;;;;;;9.40;5.70;;;;;;;-4.36;67.42;101028.33;107194;1259;1016112;-73
2023/03/29 05:21:43;;;;;;;12.10;5.80;;;;;;;-4.24;67.53;101027.06;107330;1253;1016318;-73
2023/03/29 05:26:39;;;;;;;14.20;6.30;;;;;;;-4.13;67.61;101026.05;107452;1254;1072693;-73
2023/03/29 05:31:32;;;;;;;12.40;6.60;;;;;;;-3.99;67.88;101027.50;107292;1253;1016483;-73
2023/03/29 05:36:27;;;;;;;11.30;5.90;;;;;;;-3.85;68.25;101026.94;107316;1253;1016392;-73
2023/03/29 05:41:20;;;;;;;12.10;5.40;;;;;;;-3.68;68.25;101035.73;107252;1253;1016332;-73
2023/03/29 05:46:41;;;;;;;11.40;6.70;;;;;;;-3.47;68.32;101035.13;107354;1254;1061668;-73
2023/03/29 05:51:35;;;;;;;8.80;5.30;;;;;;;-3.29;68.38;101037.38;107356;1253;1016494;-73
2023/03/29 05:56:28;;;;;;;8.30;6.10;;;;;;;-3.10;68.45;101040.89;107311;1253;1016336;-73
2023/03/29 06:01:21;;;;;;;11.80;6.80;;;;;;;-2.92;68.23;101042.26;107273;1253;1016336;-73
2023/03/29 06:06:26;;;;;;;8.10;5.30;;;;;;;-2.76;68.26;101047.43;107321;1254;1051396;-72
2023/03/29 06:11:21;;;;;;;15.80;7.50;;;;;;;-2.59;67.93;101036.09;107334;1253;1018928;-73
2023/03/29 06:16:32;;;;;;;7.30;4.80;;;;;;;-2.43;68.03;101039.48;107321;1253;1071920;-73
2023/03/29 06:21:27;;;;;;;11.30;5.70;;;;;;;-2.26;67.79;101036.16;107308;1256;1016326;-73
2023/03/29 06:26:23;;;;;;;11.30;5.60;;;;;;;-2.01;67.72;101034.61;107233;1254;1070707;-73
2023/03/29 06:31:18;;;;;;;11.20;5.10;;;;;;;-1.77;67.52;101041.69;107328;1254;1051868;-73
2023/03/29 06:36:15;;;;;;;9.00;5.60;;;;;;;-1.63;67.40;101039.48;107357;1254;1059168;-73
2023/03/29 06:41:20;;;;;;;7.20;3.30;;;;;;;-1.49;67.33;101042.70;107293;1253;1071136;-73
2023/03/29 06:46:18;;;;;;;7.30;3.50;;;;;;;-1.38;67.03;101046.68;107283;1254;1067792;-73
2023/03/29 06:51:22;;;;;;;11.10;5.10;;;;;;;-1.25;66.92;101051.84;107281;1254;1070852;-73
2023/03/29 06:56:16;;;;;;;8.90;4.10;;;;;;;-1.04;66.77;101047.33;107326;1253;1016437;-73
2023/03/29 07:01:20;;;;;;;15.80;9.10;;;;;;;-0.50;66.12;101045.55;107307;1253;1061085;-72
2023/03/29 07:06:22;;;;;;;6.40;4.20;;;;;;;-0.04;65.64;101045.92;107388;1253;1072508;-73
2023/03/29 07:11:17;;;;;;;27.70;13.60;;;;;;;0.26;65.10;101041.05;107280;1253;1018650;-73
2023/03/29 07:16:19;;;;;;;10.70;5.40;;;;;;;0.27;64.88;101043.84;107301;1254;1070880;-72
2023/03/29 07:21:29;;;;;;;9.00;4.60;;;;;;;0.25;65.10;101040.52;107220;1254;1051360;-72
2023/03/29 07:26:22;;;;;;;7.80;4.60;;;;;;;0.48;64.84;101039.87;107799;1258;1018757;-73
2023/03/29 07:31:27;;;;;;;6.70;4.10;;;;;;;4.42;60.16;101025.32;107281;1253;1073467;-73
2023/03/29 07:36:27;;;;;;;9.00;5.20;;;;;;;9.48;54.82;101012.79;108598;1257;1065224;-73
2023/03/29 07:41:21;;;;;;;8.40;5.40;;;;;;;12.49;50.68;101006.66;108239;1253;1016047;-73
2023/03/29 07:46:25;;;;;;;7.00;4.90;;;;;;;15.17;47.88;100998.58;107185;1253;1050694;-74
2023/03/29 07:51:18;;;;;;;7.60;5.20;;;;;;;17.53;44.59;100998.62;107300;1254;1018123;-73
2023/03/29 07:56:17;;;;;;;6.90;5.10;;;;;;;19.34;41.74;100993.45;107325;1253;1072282;-73
2023/03/29 08:01:18;;;;;;;5.60;4.80;;;;;;;18.54;41.01;100999.58;107302;1259;1064830;-73
2023/03/29 08:06:35;;;;;;;8.30;4.60;;;;;;;16.51;41.74;101002.69;107320;1254;1070801;-73
2023/03/29 08:11:28;;;;;;;6.70;4.70;;;;;;;15.30;41.88;100997.66;107364;1254;1016130;-73
2023/03/29 08:16:25;;;;;;;7.10;5.20;;;;;;;13.99;41.52;100999.27;107352;1254;1057957;-73
2023/03/29 08:21:30;;;;;;;6.50;4.50;;;;;;;15.55;40.35;100994.48;107166;1254;1072578;-73
2023/03/29 08:26:23;;;;;;;5.70;4.50;;;;;;;18.14;38.37;100987.84;107045;1254;1015718;-74
2023/03/29 08:31:17;;;;;;;5.40;3.70;;;;;;;17.22;38.91;100988.16;107289;1254;1015831;-73
2023/03/29 08:36:10;;;;;;;8.90;4.30;;;;;;;15.46;39.16;100991.92;107160;1254;1015882;-73
2023/03/29 08:41:40;;;;;;;6.50;3.60;;;;;;;15.10;38.74;100989.77;107316;1253;1015797;-73
2023/03/29 08:46:36;;;;;;;5.50;4.10;;;;;;;14.94;38.47;100988.81;106736;1262;1072195;-73
2023/03/29 08:51:45;;;;;;;5.70;3.80;;;;;;;16.03;37.63;100981.23;106663;1263;1065358;-73
2023/03/29 08:56:40;;;;;;;4.50;3.30;;;;;;;15.59;37.09;100974.44;106614;1262;1070666;-73
2023/03/29 09:01:49;;;;;;;3.90;3.10;;;;;;;14.03;37.95;100976.61;106749;1264;1051550;-73
2023/03/29 09:06:42;;;;;;;4.80;3.40;;;;;;;12.61;39.32;100978.16;106707;1263;1058964;-73
2023/03/29 09:12:12;;;;;;;4.40;3.30;;;;;;;11.67;40.47;100980.59;106663;1262;1071613;-73
2023/03/29 09:17:31;;;;;;;5.50;2.90;;;;;;;11.33;39.73;100976.02;106712;1264;1066149;-74
2023/03/29 09:22:43;;;;;;;5.10;2.50;;;;;;;11.25;39.26;100976.56;107050;1259;1071848;-73
2023/03/29 09:27:48;;;;;;;3.10;2.40;;;;;;;11.83;37.40;100975.75;107197;1254;1051565;-73
2023/03/29 09:32:53;;;;;;;4.60;2.50;;;;;;;14.06;35.55;100963.23;107352;1253;1058619;-73
2023/03/29 09:37:53;;;;;;;2.50;2.00;;;;;;;14.67;33.90;100960.28;107205;1254;1072646;-73
2023/03/29 09:42:49;;;;;;;3.30;2.60;;;;;;;15.10;33.39;100956.55;107376;1258;1065543;-73
2023/03/29 09:48:15;;;;;;;3.80;2.00;;;;;;;15.77;33.19;100956.83;107212;1254;1073584;-73
2023/03/29 09:53:15;;;;;;;2.20;1.80;;;;;;;14.85;32.46;100949.17;107258;1253;1055404;-73
2023/03/29 09:58:17;;;;;;;2.70;2.20;;;;;;;15.02;31.82;100945.19;107174;1256;1058769;-73
2023/03/29 10:03:19;;;;;;;2.90;1.90;;;;;;;16.83;30.69;100939.56;107196;1254;1072132;-72
2023/03/29 10:08:45;;;;;;;3.60;2.30;;;;;;;18.30;28.99;100932.90;107144;1254;1065270;-73
2023/03/29 10:13:48;;;;;;;2.90;2.20;;;;;;;20.57;27.43;100925.28;107181;1257;1071324;-73
2023/03/29 10:18:43;;;;;;;3.60;2.60;;;;;;;22.26;27.03;100919.95;107118;1257;1050885;-73
2023/03/29 10:23:37;;;;;;;2.90;2.50;;;;;;;23.39;25.60;100927.55;107088;1255;1059164;-75
2023/03/29 10:28:32;;;;;;;2.70;2.30;;;;;;;24.15;25.40;100917.16;107051;1254;1074931;-74
2023/03/29 10:33:31;;;;;;;3.00;2.00;;;;;;;24.93;24.99;100917.61;107152;1255;1067959;-74
2023/03/29 10:38:28;;;;;;;3.50;1.90;;;;;;;24.98;23.30;100915.28;107314;1254;1071170;-74
2023/03/29 10:43:24;;;;;;;4.60;2.60;;;;;;;24.78;23.17;100912.55;107231;1254;1051062;-74
2023/03/29 10:48:18;;;;;;;2.50;2.30;;;;;;;24.68;22.74;100906.19;107233;1254;1058898;-75
2023/03/29 10:53:20;;;;;;;2.90;2.30;;;;;;;24.33;21.98;100906.42;107149;1254;1016380;-74
2023/03/29 10:58:43;;;;;;;7.30;3.00;;;;;;;24.06;22.25;100908.46;107147;1260;1066261;-74
2023/03/29 11:03:54;;;;;;;3.40;2.20;;;;;;;24.32;22.79;100899.17;107187;1255;1071091;-73
2023/03/29 11:08:59;;;;;;;3.50;2.90;;;;;;;24.43;22.18;100897.74;107182;1257;1050577;-74
2023/03/29 11:14:20;;;;;;;4.60;2.50;;;;;;;24.13;21.89;100901.30;107264;1254;1058433;-74
2023/03/29 11:19:27;;;;;;;2.50;2.20;;;;;;;24.22;22.73;100898.15;107148;1254;1074862;-74
2023/03/29 11:24:42;;;;;;;3.50;2.30;;;;;;;24.14;21.97;100897.90;107042;1254;1065132;-74
2023/03/29 11:30:05;;;;;;;4.30;2.70;;;;;;;23.44;22.27;100894.30;107062;1257;1073447;-74
2023/03/29 11:34:58;;;;;;;2.50;2.30;;;;;;;23.08;22.18;100888.24;107142;1254;1051303;-74
2023/03/29 11:39:51;;;;;;;2.90;2.30;;;;;;;22.45;21.93;100877.95;107304;1254;1016315;-73
2023/03/29 11:44:48;;;;;;;2.60;1.90;;;;;;;21.89;22.35;100874.40;107360;1254;1016940;-74
2023/03/29 11:49:43;;;;;;;;;;;;;;;21.30;22.69;100878.90;107203;1254;1068890;-72
2023/03/29 11:54:43;;;;;;;3.70;2.70;;;;;;;20.07;23.62;100877.53;107204;1257;1070994;-73
2023/03/29 11:59:43;;;;;;;3.30;2.60;;;;;;;18.12;24.00;100880.33;107210;1254;1051161;-73
2023/03/29 12:04:44;;;;;;;3.30;2.60;;;;;;;16.69;25.06;100868.06;107185;1253;1059319;-73
2023/03/29 12:09:53;;;;;;;4.20;2.30;;;;;;;15.64;25.65;100865.60;107216;1254;1074186;-73
2023/03/29 12:14:58;;;;;;;2.80;2.60;;;;;;;14.87;26.89;100871.38;107239;1254;1065897;-73
2023/03/29 12:20:06;;;;;;;3.20;2.10;;;;;;;14.48;27.38;100864.95;107221;1257;1070401;-73
2023/03/29 12:25:05;;;;;;;4.50;2.60;;;;;;;14.15;26.86;100860.98;107169;1254;1051055;-73
2023/03/29 12:30:16;;;;;;;3.10;2.10;;;;;;;13.87;27.24;100853.52;107242;1257;1057861;-72
2023/03/29 12:35:39;;;;;;;3.30;2.50;;;;;;;13.56;27.17;100850.54;107233;1254;1072118;-72
2023/03/29 12:41:17;;;;;;;6.70;2.90;;;;;;;13.45;27.39;100848.73;107230;1254;1066542;-73
2023/03/29 12:46:33;;;;;;;3.90;2.70;;;;;;;13.27;26.79;100845.95;107185;1254;1071293;-72
2023/03/29 12:51:35;;;;;;;4.50;2.90;;;;;;;12.83;26.52;100841.03;107268;1254;1051446;-72
2023/03/29 12:56:51;;;;;;;3.60;2.70;;;;;;;12.76;27.71;100840.63;107241;1254;1058687;-73
2023/03/29 13:02:03;;;;;;;2.60;2.40;;;;;;;12.72;27.42;100839.89;107176;1257;1072486;-72
2023/03/29 13:07:02;;;;;;;3.90;2.70;;;;;;;12.66;27.42;100836.00;107280;1253;1065661;-73
2023/03/29 13:12:13;;;;;;;2.50;2.30;;;;;;;12.54;26.82;100837.94;107236;1254;1070181;-73
2023/03/29 13:17:41;;;;;;;3.00;2.20;;;;;;;12.47;28.16;100833.71;107223;1254;1051344;-72
2023/03/29 13:22:47;;;;;;;4.50;3.50;;;;;;;12.57;27.97;100832.77;106695;1260;1057911;-73
2023/03/29 13:28:05;;;;;;;4.00;2.90;;;;;;;12.41;27.58;100830.67;106696;1263;1074758;-73
2023/03/29 13:33:36;;;;;;;5.40;3.20;;;;;;;12.43;28.39;100826.19;106673;1260;1067012;-73
2023/03/29 13:38:32;;;;;;;3.70;3.10;;;;;;;12.54;28.10;100822.47;106691;1261;1071620;-72
2023/03/29 13:43:52;;;;;;;4.00;2.70;;;;;;;12.43;28.08;100819.23;106681;1260;1052858;-72
2023/03/29 13:49:20;;;;;;;3.50;2.70;;;;;;;12.43;27.85;100814.36;106666;1260;1061081;-73
2023/03/29 13:54:46;;;;;;;2.80;2.20;;;;;;;12.38;27.93;100805.62;106692;1260;1072481;-73
2023/03/29 13:59:52;;;;;;;3.20;2.50;;;;;;;12.39;27.66;100808.59;107048;1254;1067851;-73
2023/03/29 14:04:49;;;;;;;2.50;1.90;;;;;;;12.35;27.33;100801.77;107166;1254;1072135;-72
2023/03/29 14:09:45;;;;;;;;;;;;;;;12.09;26.62;100800.95;107212;1258;1053608;-73
2023/03/29 14:14:41;;;;;;;2.10;1.90;;;;;;;11.85;26.36;100799.76;107116;1254;1057994;-73
2023/03/29 14:19:50;;;;;;;2.30;1.90;;;;;;;11.74;26.15;100795.24;107131;1257;1071817;-73
2023/03/29 14:24:51;;;;;;;1.90;1.50;;;;;;;11.64;26.70;100783.15;107176;1254;1016155;-73
2023/03/29 14:29:50;;;;;;;1.80;1.60;;;;;;;11.73;26.85;100780.14;107185;1254;1070782;-72
2023/03/29 14:34:44;;;;;;;2.00;1.40;;;;;;;11.78;26.91;100774.13;107098;1254;1052013;-72
2023/03/29 14:39:38;;;;;;;2.60;1.80;;;;;;;11.80;27.32;100772.41;107237;1257;1058209;-72
2023/03/29 14:44:33;;;;;;;2.20;2.00;;;;;;;11.85;27.23;100772.46;107198;1254;1071872;-72
2023/03/29 14:49:27;;;;;;;2.30;1.80;;;;;;;11.78;26.71;100771.69;107116;1254;1067850;-73
2023/03/29 14:54:30;;;;;;;2.20;1.80;;;;;;;11.51;27.11;100772.20;107224;1254;1016086;-72
2023/03/29 14:59:35;;;;;;;1.80;1.40;;;;;;;11.38;27.61;100772.88;107223;1254;1051122;-74
2023/03/29 15:04:37;;;;;;;2.40;1.90;;;;;;;11.11;27.24;100768.33;107164;1254;1058948;-73
2023/03/29 15:09:34;;;;;;;2.70;1.80;;;;;;;11.08;27.54;100772.27;107141;1254;1074409;-73
2023/03/29 15:14:34;;;;;;;4.10;1.80;;;;;;;10.73;27.36;100771.52;107165;1254;1065753;-73
2023/03/29 15:19:27;;;;;;;3.70;2.40;;;;;;;10.35;27.74;100764.92;107196;1254;1070602;-73
2023/03/29 15:24:32;;;;;;;4.70;2.20;;;;;;;10.03;27.80;100766.19;107209;1254;1016398;-73
2023/03/29 15:29:34;;;;;;;4.30;2.60;;;;;;;9.59;28.81;100765.98;107168;1254;1058179;-73
2023/03/29 15:34:33;;;;;;;2.90;2.20;;;;;;;9.21;29.32;100762.53;107196;1259;1071520;-72
2023/03/29 15:39:28;;;;;;;4.80;2.00;;;;;;;8.91;29.36;100761.11;107287;1256;1065464;-74
2023/03/29 15:44:26;;;;;;;3.30;2.10;;;;;;;8.68;30.52;100760.23;107191;1254;1070870;-73
2023/03/29 15:49:19;;;;;;;4.70;2.60;;;;;;;8.48;30.54;100760.91;107245;1253;1051013;-72
2023/03/29 15:54:12;;;;;;;2.80;2.10;;;;;;;8.40;31.42;100759.98;107207;1254;1020329;-73
2023/03/29 15:59:05;;;;;;;2.70;2.20;;;;;;;8.27;31.71;100759.29;107180;1254;1016063;-74
2023/03/29 16:04:02;;;;;;;4.40;2.80;;;;;;;8.22;32.88;100759.32;107186;1254;1018535;-72
2023/03/29 16:08:55;;;;;;;2.80;2.10;;;;;;;8.23;33.94;100753.12;107116;1253;1071370;-73
2023/03/29 16:13:49;;;;;;;3.80;2.30;;;;;;;8.13;34.27;100750.09;107186;1253;1019131;-73
2023/03/29 16:18:42;;;;;;;7.00;2.70;;;;;;;7.98;34.79;100748.14;107197;1254;1016280;-71
2023/03/29 16:23:35;;;;;;;4.00;2.30;;;;;;;7.85;34.61;100746.20;107172;1254;1016841;-72
2023/03/29 16:28:28;;;;;;;4.40;2.90;;;;;;;7.69;35.10;100741.61;107244;1254;1016075;-72
2023/03/29 16:33:21;;;;;;;4.10;2.90;;;;;;;7.43;35.74;100742.25;107175;1256;1016251;-71
2023/03/29 16:38:14;;;;;;;7.10;3.30;;;;;;;7.17;36.16;100737.64;107139;1255;1016138;-72
2023/03/29 16:43:07;;;;;;;4.00;3.20;;;;;;;6.89;37.07;100743.14;107037;1254;1016936;-72
2023/03/29 16:48:00;;;;;;;4.90;3.20;;;;;;;6.62;37.64;100739.15;107123;1256;1016435;-71
2023/03/29 16:52:53;;;;;;;8.70;2.70;;;;;;;6.37;38.52;100741.23;107141;1254;1018327;-71
2023/03/29 16:57:49;;;;;;;6.00;2.70;;;;;;;6.15;39.09;100736.52;107133;1254;1016399;-71
2023/03/29 17:02:43;;;;;;;5.60;2.50;;;;;;;5.93;39.53;100729.36;107180;1253;1051768;-71
2023/03/29 17:07:37;;;;;;;4.10;2.90;;;;;;;5.68;40.35;100726.01;107113;1253;1016565;-71
2023/03/29 17:12:31;;;;;;;3.00;2.70;;;;;;;5.46;40.76;100724.54;107073;1254;1016938;-71
2023/03/29 17:17:25;;;;;;;3.90;2.50;;;;;;;5.25;40.98;100731.81;107467;1253;1015996;-71
2023/03/29 17:22:18;;;;;;;6.40;3.00;;;;;;;5.04;41.46;100734.23;107218;1253;1016074;-71
2023/03/29 17:27:11;;;;;;;6.20;3.20;;;;;;;4.87;41.75;100737.20;107159;1254;1016258;-71
2023/03/29 17:32:04;;;;;;;6.90;4.60;;;;;;;4.75;42.32;100737.54;107266;1257;1016299;-71
2023/03/29 17:36:57;;;;;;;7.40;3.20;;;;;;;4.58;42.48;100735.30;107172;1256;1016337;-71
2023/03/29 17:41:50;;;;;;;5.00;3.90;;;;;;;4.37;42.82;100731.86;107065;1253;1016416;-71
2023/03/29 17:46:43;;;;;;;7.50;3.40;;;;;;;4.18;43.60;100738.77;107131;1253;1016478;-71
2023/03/29 17:51:36;;;;;;;7.00;4.70;;;;;;;3.98;43.52;100745.96;106954;1253;1016367;-70
2023/03/29 17:56:29;;;;;;;10.60;4.20;;;;;;;3.82;44.03;100743.58;107147;1253;1016095;-70
2023/03/29 18:01:22;;;;;;;9.00;5.50;;;;;;;3.68;44.50;100745.32;107236;1253;1017492;-70
2023/03/29 18:06:19;;;;;;;8.30;5.50;;;;;;;3.53;44.78;100751.14;107163;1257;1016377;-72
2023/03/29 18:11:17;;;;;;;7.10;4.20;;;;;;;3.39;45.13;100757.75;107038;1253;1073655;-71
2023/03/29 18:16:11;;;;;;;8.00;4.60;;;;;;;3.29;45.45;100759.67;107093;1253;1050535;-71
2023/03/29 18:21:05;;;;;;;10.20;5.40;;;;;;;3.22;45.64;100757.45;107123;1253;1016344;-71
2023/03/29 18:26:03;;;;;;;10.20;4.30;;;;;;;3.19;46.30;100759.70;107107;1257;1071683;-71
2023/03/29 18:30:57;;;;;;;5.00;3.80;;;;;;;3.12;46.62;100757.27;107119;1253;1065094;-71
2023/03/29 18:35:50;;;;;;;4.30;2.70;;;;;;;3.09;46.43;100749.77;107219;1253;1018825;-71
2023/03/29 18:40:43;;;;;;;5.90;4.10;;;;;;;3.10;47.04;100747.95;107305;1254;1016059;-71
2023/03/29 18:45:36;;;;;;;8.30;3.30;;;;;;;3.06;47.30;100746.05;107187;1253;1017440;-71
2023/03/29 18:50:29;;;;;;;4.40;3.20;;;;;;;3.04;47.63;100747.00;107199;1253;1016498;-71
2023/03/29 18:55:22;;;;;;;4.30;2.80;;;;;;;3.01;48.03;100745.48;107137;1253;1016810;-71
2023/03/29 19:00:15;;;;;;;5.40;3.40;;;;;;;3.00;48.30;100743.20;107142;1255;1017062;-70
2023/03/29 19:05:08;;;;;;;12.00;3.90;;;;;;;2.99;48.49;100741.83;107125;1254;1016557;-71
2023/03/29 19:10:02;;;;;;;9.00;3.50;;;;;;;2.98;48.99;100748.92;107098;1256;1016462;-70
2023/03/29 19:14:55;;;;;;;9.40;3.50;;;;;;;2.95;49.20;100755.30;107209;1254;1016422;-70
2023/03/29 19:19:48;;;;;;;11.40;4.80;;;;;;;2.92;49.38;100755.31;107169;1254;1016115;-71
2023/03/29 19:24:41;;;;;;;8.90;4.40;;;;;;;2.92;49.60;100747.96;107117;1255;1015816;-70
2023/03/29 19:29:34;;;;;;;7.70;4.60;;;;;;;2.92;49.80;100742.82;107093;1254;1016163;-70
2023/03/29 19:34:28;;;;;;;8.80;4.80;;;;;;;2.89;49.96;100739.80;107152;1256;1016625;-71
2023/03/29 19:39:24;;;;;;;8.80;6.10;;;;;;;2.87;50.10;100738.16;107143;1254;1016153;-71
2023/03/29 19:44:18;;;;;;;10.10;6.20;;;;;;;2.85;50.36;100738.39;107145;1256;1073038;-71
2023/03/29 19:49:12;;;;;;;9.00;5.70;;;;;;;2.83;51.00;100744.79;107027;1257;1015842;-71
2023/03/29 19:54:05;;;;;;;8.30;6.90;;;;;;;2.80;51.09;100737.80;107218;1254;1016282;-71
2023/03/29 19:58:59;;;;;;;14.50;8.00;;;;;;;2.76;50.85;100734.55;107179;1255;1016307;-71
2023/03/29 20:03:53;;;;;;;14.30;9.00;;;;;;;2.76;51.34;100726.47;107226;1253;1015937;-71
2023/03/29 20:08:47;;;;;;;14.20;9.20;;;;;;;2.74;51.46;100726.55;107249;1253;1065218;-71
2023/03/29 20:13:44;;;;;;;16.80;8.80;;;;;;;2.73;51.26;100717.27;107236;1253;1016316;-71
2023/03/29 20:18:40;;;;;;;;;;;;;;;2.69;51.23;100712.80;107223;1253;1051789;-71
2023/03/29 20:23:34;;;;;;;16.60;8.60;;;;;;;2.63;51.80;100711.16;107238;1253;1057584;-71
2023/03/29 20:28:26;;;;;;;18.00;9.60;;;;;;;2.57;51.91;100707.08;107235;1253;1016098;-71
2023/03/29 20:33:22;;;;;;;17.30;10.30;;;;;;;2.55;52.01;100697.02;107298;1253;1017229;-71
2023/03/29 20:38:15;;;;;;;18.60;10.70;;;;;;;2.49;52.22;100694.38;107257;1253;1071293;-71
2023/03/29 20:43:12;;;;;;;20.00;12.90;;;;;;;2.44;52.13;100689.31;107251;1253;1016452;-71
2023/03/29 20:48:05;;;;;;;23.70;13.00;;;;;;;2.40;52.11;100683.14;107558;1253;1058659;-71
2023/03/29 20:53:02;;;;;;;21.70;13.60;;;;;;;2.36;52.04;100673.88;107313;1253;1016487;-71
2023/03/29 20:57:55;;;;;;;27.90;13.20;;;;;;;2.30;52.20;100671.52;107299;1253;1064178;-71
2023/03/29 21:02:48;;;;;;;22.50;13.40;;;;;;;2.19;52.58;100673.41;107277;1253;1016440;-71
2023/03/29 21:07:43;;;;;;;22.70;13.30;;;;;;;2.07;52.71;100672.81;107346;1253;1017883;-71
2023/03/29 21:12:37;;;;;;;22.70;13.60;;;;;;;1.95;53.00;100675.22;107247;1254;1058287;-71
2023/03/29 21:17:31;;;;;;;25.40;14.50;;;;;;;1.82;53.30;100668.81;107225;1253;1016174;-71
2023/03/29 21:22:25;;;;;;;26.60;16.00;;;;;;;1.70;53.20;100661.17;107200;1253;1016986;-70
2023/03/29 21:27:18;;;;;;;20.90;12.90;;;;;;;1.59;53.24;100658.70;107155;1253;1016279;-71
2023/03/29 21:32:10;;;;;;;25.70;14.20;;;;;;;1.50;53.04;100664.10;107194;1253;1018567;-72
2023/03/29 21:37:03;;;;;;;24.60;15.30;;;;;;;1.42;53.38;100662.45;107296;1256;1016166;-71
2023/03/29 21:41:57;;;;;;;28.30;15.30;;;;;;;1.31;53.13;100654.67;107222;1253;1016438;-71
2023/03/29 21:46:50;;;;;;;22.90;13.50;;;;;;;1.21;53.36;100656.19;107227;1254;1016166;-71
2023/03/29 21:51:43;;;;;;;24.30;13.60;;;;;;;1.17;53.67;100660.23;107182;1254;1019071;-71
2023/03/29 21:56:37;;;;;;;28.90;14.20;;;;;;;1.14;53.83;100661.49;107351;1253;1018433;-71
2023/03/29 22:01:30;;;;;;;26.50;14.70;;;;;;;1.14;53.94;100652.96;107339;1253;1016289;-71
2023/03/29 22:06:23;;;;;;;24.00;14.90;;;;;;;1.16;54.02;100647.21;107286;1253;1017690;-71
2023/03/29 22:11:17;;;;;;;28.00;15.70;;;;;;;1.20;54.02;100637.34;107263;1253;1068514;-71
2023/03/29 22:16:15;;;;;;;24.00;14.20;;;;;;;1.24;53.99;100632.13;107233;1254;1016055;-71
2023/03/29 22:21:18;;;;;;;25.40;15.60;;;;;;;1.28;53.72;100627.90;107238;1254;1051477;-71
2023/03/29 22:26:14;;;;;;;28.50;14.50;;;;;;;1.35;54.31;100621.93;107344;1253;1059370;-71